Continental Highway — H9LY — position and weather

sailwx.info

Track history (hours):
 
Tides and Currents Weather Stations Pressure Air Temp Water Temp Dewpoint Dewpoint Depression Visibility Wind Speed Wind Dir Waves Ship Positions

Continental Highway

Last reported at 2017-Nov-10 03:01 UTC. Time now 2017-Nov-20 00:36 UTC.
Position N 40°18' W 073°38'.
Warning: this ship's position is 9 days out of date.

Length 199.9 m; beam 32.2 m.

Type: Cargo ship. MMSI: 351223000.

Date/timePositionNaut miles runAvg speedWind from/ knotsBaromVisibWave heightAir tempDewpointWater temp
2017-Nov-10 03:01N 40°18' W 073°38'210.0
2017-Nov-10 02:48N 40°19' W 073°40'310.0
2017-Nov-10 02:30N 40°21' W 073°43'510.0
2017-Nov-10 02:00N 40°25' W 073°47'5 9.5
2017-Nov-10 01:30N 40°28' W 073°52'5 9.6
2017-Nov-10 01:00N 40°30' W 073°58'5 9.1
2017-Nov-10 00:30N 40°34' W 074°02'510.7
2017-Nov-10 00:00N 40°39' W 074°04'4 7.3
2017-Nov-09 23:30N 40°39' W 074°09'3 5.8
2017-Nov-09 23:00N 40°41' W 074°08'0 0.0
2017-Nov-09 22:30N 40°41' W 074°08'0 0.0
2017-Nov-09 22:00N 40°41' W 074°08'0 0.0
2017-Nov-09 21:30N 40°41' W 074°08'0 0.0
2017-Nov-09 21:00N 40°41' W 074°08'0 0.0
2017-Nov-09 20:30N 40°41' W 074°08'0 0.0
2017-Nov-09 20:00N 40°41' W 074°08'0 0.0
2017-Nov-09 19:30N 40°41' W 074°08'0 0.0
2017-Nov-09 19:00N 40°41' W 074°08'0 0.0
2017-Nov-09 18:30N 40°41' W 074°08'0 0.0
2017-Nov-09 18:00N 40°41' W 074°08'0 0.0
2017-Nov-09 17:30N 40°41' W 074°08'0 0.0
2017-Nov-09 17:00N 40°41' W 074°08'0 0.0
2017-Nov-09 16:30N 40°41' W 074°08'0 0.0
2017-Nov-09 16:00N 40°41' W 074°08'0 0.0
2017-Nov-09 15:30N 40°41' W 074°08'0 0.0
2017-Nov-09 15:00N 40°41' W 074°08'0 0.0
2017-Nov-09 14:30N 40°41' W 074°08'0 0.0
2017-Nov-09 13:54N 40°41' W 074°08'0 0.0
2017-Nov-09 13:27N 40°41' W 074°08'0 0.0
2017-Nov-09 12:57N 40°41' W 074°08'0 0.0
2017-Nov-09 12:30N 40°41' W 074°08'0 0.0
2017-Nov-09 12:00N 40°41' W 074°08'0 0.0
2017-Nov-09 11:30N 40°41' W 074°08'0 0.0
2017-Nov-09 11:00N 40°41' W 074°08'0 0.0
2017-Nov-09 10:30N 40°41' W 074°08'0 0.0
2017-Nov-09 09:51N 40°41' W 074°08'0 0.0
2017-Nov-09 09:30N 40°41' W 074°08'0 0.0
2017-Nov-09 08:57N 40°41' W 074°08'0 0.0
2017-Nov-09 08:30N 40°41' W 074°08'0 0.0
2017-Nov-09 08:00N 40°41' W 074°08'0 0.0
2017-Nov-09 07:30N 40°41' W 074°08'0 0.0
2017-Nov-09 07:00N 40°41' W 074°08'0 0.0
2017-Nov-09 06:30N 40°41' W 074°08'0 0.0
2017-Nov-09 06:00N 40°41' W 074°08'0 0.0
2017-Nov-09 05:30N 40°41' W 074°08'0 0.0
2017-Nov-09 05:00N 40°41' W 074°08'0 0.0
2017-Nov-09 04:30N 40°41' W 074°08'0 0.0
2017-Nov-09 04:00N 40°41' W 074°08'0 0.0
2017-Nov-09 03:30N 40°41' W 074°08'0 0.0
2017-Nov-09 03:00N 40°41' W 074°08'0 0.0
2017-Nov-09 02:30N 40°41' W 074°08'0 0.0
2017-Nov-09 02:00N 40°41' W 074°08'3 5.1
2017-Nov-09 01:30N 40°39' W 074°09'3 6.2
2017-Nov-09 01:00N 40°39' W 074°05'4 7.6
2017-Nov-09 00:30N 40°36' W 074°02'510.4
2017-Nov-09 00:00N 40°31' W 073°59'510.4
2017-Nov-08 23:30N 40°29' W 073°53'4 8.5
2017-Nov-08 22:59N 40°26' W 073°48'5 9.4
2017-Nov-08 22:28N 40°22' W 073°47'2912.1
2017-Nov-08 20:04N 39°53' W 073°44'216.8
2017-Nov-08 19:56N 39°51' W 073°44'716.4
2017-Nov-08 19:30N 39°43' W 073°44'816.3
2017-Nov-08 19:00N 39°36' W 073°46'1016.1
2017-Nov-08 18:22N 39°25' W 073°48'64215.8
2017-Nov-07 01:47N 30°26' W 080°54'616.9
2017-Nov-07 01:25N 30°23' W 081°00'  
2017-Nov-04 15:50N 26°35' W 076°26'616.4
2017-Nov-04 15:30N 26°29' W 076°26'816.5
2017-Nov-04 15:00N 26°21' W 076°27'  
Track history (hours):
 
Tides and Currents Weather Stations Pressure Air Temp Water Temp Dewpoint Dewpoint Depression Visibility Wind Speed Wind Dir Waves Ship Positions

Continental Highway

Last reported at 2017-Nov-10 03:01 UTC. Time now 2017-Nov-20 00:36 UTC.
Position N 40°18' W 073°38'.
Warning: this ship's position is 9 days out of date.

Length 199.9 m; beam 32.2 m.

Type: Cargo ship. MMSI: 351223000.

Date/timePositionNaut miles runAvg speedWind from/ knotsBaromVisibWave heightAir tempDewpointWater temp
2017-Nov-10 03:01N 40°18' W 073°38'210.0
2017-Nov-10 02:48N 40°19' W 073°40'310.0
2017-Nov-10 02:30N 40°21' W 073°43'510.0
2017-Nov-10 02:00N 40°25' W 073°47'5 9.5
2017-Nov-10 01:30N 40°28' W 073°52'5 9.6
2017-Nov-10 01:00N 40°30' W 073°58'5 9.1
2017-Nov-10 00:30N 40°34' W 074°02'510.7
2017-Nov-10 00:00N 40°39' W 074°04'4 7.3
2017-Nov-09 23:30N 40°39' W 074°09'3 5.8
2017-Nov-09 23:00N 40°41' W 074°08'0 0.0
2017-Nov-09 22:30N 40°41' W 074°08'0 0.0
2017-Nov-09 22:00N 40°41' W 074°08'0 0.0
2017-Nov-09 21:30N 40°41' W 074°08'0 0.0
2017-Nov-09 21:00N 40°41' W 074°08'0 0.0
2017-Nov-09 20:30N 40°41' W 074°08'0 0.0
2017-Nov-09 20:00N 40°41' W 074°08'0 0.0
2017-Nov-09 19:30N 40°41' W 074°08'0 0.0
2017-Nov-09 19:00N 40°41' W 074°08'0 0.0
2017-Nov-09 18:30N 40°41' W 074°08'0 0.0
2017-Nov-09 18:00N 40°41' W 074°08'0 0.0
2017-Nov-09 17:30N 40°41' W 074°08'0 0.0
2017-Nov-09 17:00N 40°41' W 074°08'0 0.0
2017-Nov-09 16:30N 40°41' W 074°08'0 0.0
2017-Nov-09 16:00N 40°41' W 074°08'0 0.0
2017-Nov-09 15:30N 40°41' W 074°08'0 0.0
2017-Nov-09 15:00N 40°41' W 074°08'0 0.0
2017-Nov-09 14:30N 40°41' W 074°08'0 0.0
2017-Nov-09 13:54N 40°41' W 074°08'0 0.0
2017-Nov-09 13:27N 40°41' W 074°08'0 0.0
2017-Nov-09 12:57N 40°41' W 074°08'0 0.0
2017-Nov-09 12:30N 40°41' W 074°08'0 0.0
2017-Nov-09 12:00N 40°41' W 074°08'0 0.0
2017-Nov-09 11:30N 40°41' W 074°08'0 0.0
2017-Nov-09 11:00N 40°41' W 074°08'0 0.0
2017-Nov-09 10:30N 40°41' W 074°08'0 0.0
2017-Nov-09 09:51N 40°41' W 074°08'0 0.0
2017-Nov-09 09:30N 40°41' W 074°08'0 0.0
2017-Nov-09 08:57N 40°41' W 074°08'0 0.0
2017-Nov-09 08:30N 40°41' W 074°08'0 0.0
2017-Nov-09 08:00N 40°41' W 074°08'0 0.0
2017-Nov-09 07:30N 40°41' W 074°08'0 0.0
2017-Nov-09 07:00N 40°41' W 074°08'0 0.0
2017-Nov-09 06:30N 40°41' W 074°08'0 0.0
2017-Nov-09 06:00N 40°41' W 074°08'0 0.0
2017-Nov-09 05:30N 40°41' W 074°08'0 0.0
2017-Nov-09 05:00N 40°41' W 074°08'0 0.0
2017-Nov-09 04:30N 40°41' W 074°08'0 0.0
2017-Nov-09 04:00N 40°41' W 074°08'0 0.0
2017-Nov-09 03:30N 40°41' W 074°08'0 0.0
2017-Nov-09 03:00N 40°41' W 074°08'0 0.0
2017-Nov-09 02:30N 40°41' W 074°08'0 0.0
2017-Nov-09 02:00N 40°41' W 074°08'3 5.1
2017-Nov-09 01:30N 40°39' W 074°09'3 6.2
2017-Nov-09 01:00N 40°39' W 074°05'4 7.6
2017-Nov-09 00:30N 40°36' W 074°02'510.4
2017-Nov-09 00:00N 40°31' W 073°59'510.4
2017-Nov-08 23:30N 40°29' W 073°53'4 8.5
2017-Nov-08 22:59N 40°26' W 073°48'5 9.4
2017-Nov-08 22:28N 40°22' W 073°47'2912.1
2017-Nov-08 20:04N 39°53' W 073°44'216.8
2017-Nov-08 19:56N 39°51' W 073°44'716.4
2017-Nov-08 19:30N 39°43' W 073°44'816.3
2017-Nov-08 19:00N 39°36' W 073°46'1016.1
2017-Nov-08 18:22N 39°25' W 073°48'64215.8
2017-Nov-07 01:47N 30°26' W 080°54'616.9
2017-Nov-07 01:25N 30°23' W 081°00'  
2017-Nov-04 15:50N 26°35' W 076°26'616.4
2017-Nov-04 15:30N 26°29' W 076°26'816.5
2017-Nov-04 15:00N 26°21' W 076°27'  

Dump ship's entire track history